Time;durP1;ratioP1;P1;durP2;ratioP2;P2;SDS_P1;SDS_P2;PMS_P1;PMS_P2;Temp;Humidity;BMP_temperature;BMP_pressure;BME280_temperature;BME280_humidity;BME280_pressure;Samples;Min_cycle;Max_cycle;Signal;HPM_P1;HPM_P2
2022/12/26 00:01:01;;;;;;;21.67;17.88;;;;;;;-148.88;100.00;75570.03;5055375;28;20394;-76
2022/12/26 00:03:26;;;;;;;18.75;11.45;;;;;;;-148.88;100.00;75555.84;5073185;28;20414;-76
2022/12/26 00:05:52;;;;;;;17.23;10.98;;;;;;;-148.88;100.00;75584.25;5072914;28;20483;-75
2022/12/26 00:08:17;;;;;;;21.70;18.67;;;;;;;-148.88;100.00;75582.22;5073083;28;20024;-76
2022/12/26 00:10:43;;;;;;;22.40;18.38;;;;;;;-148.88;100.00;75574.13;5055376;28;20029;-76
2022/12/26 00:13:08;;;;;;;21.13;18.02;;;;;;;-148.88;100.00;75576.13;5072977;28;20428;-76
2022/12/26 00:15:33;;;;;;;17.88;11.07;;;;;;;-148.88;100.00;75586.31;5055040;28;20031;-76
2022/12/26 00:17:59;;;;;;;20.17;16.67;;;;;;;-148.88;100.00;75578.19;5073045;28;20021;-76
2022/12/26 00:20:24;;;;;;;22.10;15.50;;;;;;;-148.88;100.00;75596.44;5054986;28;20398;-76
2022/12/26 00:22:49;;;;;;;18.85;14.73;;;;;;;-148.88;100.00;75604.56;5072825;28;20028;-76
2022/12/26 00:25:15;;;;;;;17.08;14.63;;;;;;;-148.88;100.00;75598.47;5072983;28;20024;-76
2022/12/26 00:27:40;;;;;;;16.63;13.65;;;;;;;-148.88;100.00;75618.78;5055250;28;20032;-76
2022/12/26 00:30:09;;;;;;;17.50;13.98;;;;;;;-148.88;100.00;75608.63;5073353;28;20028;-76
2022/12/26 00:32:35;;;;;;;17.60;13.73;;;;;;;-148.88;100.00;75630.97;5054683;28;20031;-75
2022/12/26 00:35:00;;;;;;;18.48;14.48;;;;;;;-148.88;100.00;75626.91;5073765;28;20017;-75
2022/12/26 00:37:25;;;;;;;21.77;14.05;;;;;;;-148.88;100.00;75639.09;5055117;28;20032;-76
2022/12/26 00:39:51;;;;;;;18.23;13.50;;;;;;;-148.88;100.00;75639.09;5072782;28;20027;-76
2022/12/26 00:42:16;;;;;;;17.58;13.52;;;;;;;-148.88;100.00;75643.16;5072718;28;20082;-76
2022/12/26 00:44:41;;;;;;;14.40;8.00;;;;;;;-148.88;100.00;75649.25;5072390;28;20016;-76
2022/12/26 00:47:06;;;;;;;18.88;13.45;;;;;;;-148.88;100.00;75655.34;5073002;28;20024;-76
2022/12/26 00:49:32;;;;;;;16.85;12.27;;;;;;;-148.88;100.00;75637.06;5072444;28;20475;-76
2022/12/26 00:51:57;;;;;;;16.73;12.05;;;;;;;-148.88;100.00;75655.34;5072680;28;20497;-76
2022/12/26 00:54:22;;;;;;;15.73;11.90;;;;;;;-148.88;100.00;75655.34;5074834;28;20166;-76
2022/12/26 00:56:50;;;;;;;15.48;12.18;;;;;;;-148.88;100.00;75665.50;5076872;28;20032;-75
2022/12/26 00:59:15;;;;;;;16.52;12.50;;;;;;;-148.88;100.00;75659.41;5076534;28;20107;-75
2022/12/26 01:01:41;;;;;;;18.90;12.65;;;;;;;-148.88;100.00;75665.50;5075832;28;20166;-76
2022/12/26 01:04:06;;;;;;;17.02;12.77;;;;;;;-148.88;100.00;75665.50;5075777;28;20062;-76
2022/12/26 01:06:31;;;;;;;19.80;13.82;;;;;;;-148.88;100.00;75663.47;5075700;28;20029;-76
2022/12/26 01:08:58;;;;;;;19.15;14.07;;;;;;;-148.88;100.00;75667.53;5076178;28;20047;-76
2022/12/26 01:11:38;;;;;;;15.43;8.73;;;;;;;-148.88;100.00;75659.41;5077126;28;20503;-75
2022/12/26 01:14:09;;;;;;;17.10;8.95;;;;;;;-148.88;100.00;75667.53;5075645;28;20032;-76
2022/12/26 01:16:34;;;;;;;22.98;16.02;;;;;;;-148.88;100.00;75663.47;5075708;28;20104;-76
2022/12/26 01:18:59;;;;;;;21.27;14.93;;;;;;;-148.88;100.00;75675.66;5075655;28;20103;-76
2022/12/26 01:21:25;;;;;;;17.58;9.52;;;;;;;-148.88;100.00;75693.94;5057574;28;20037;-76
2022/12/26 01:23:50;;;;;;;18.23;8.95;;;;;;;-148.88;100.00;75687.84;5075368;28;20032;-76
2022/12/26 01:26:16;;;;;;;20.58;11.07;;;;;;;-148.88;100.00;75695.97;5057487;28;20054;-76
2022/12/26 01:28:41;;;;;;;27.08;18.55;;;;;;;-148.88;100.00;75710.19;5075421;28;20063;-76
2022/12/26 01:31:06;;;;;;;28.30;19.65;;;;;;;-148.88;100.00;75704.09;5075341;28;20024;-76
2022/12/26 01:33:31;;;;;;;20.98;10.85;;;;;;;-148.88;100.00;75695.97;5075630;28;20038;-76
2022/12/26 01:35:57;;;;;;;20.52;10.38;;;;;;;-148.88;100.00;75716.28;5075296;28;20477;-76
2022/12/26 01:38:23;;;;;;;20.08;10.20;;;;;;;-148.88;100.00;75708.16;5075214;28;20021;-76
2022/12/26 01:41:15;;;;;;;28.08;19.23;;;;;;;-148.88;100.00;75720.34;5075420;28;20463;-76
2022/12/26 01:43:54;;;;;;;19.83;10.30;;;;;;;-148.88;100.00;75708.16;5074920;28;20028;-76
2022/12/26 01:46:43;;;;;;;27.23;12.30;;;;;;;-148.88;100.00;75698.00;5075401;28;20029;-75
2022/12/26 01:49:16;;;;;;;22.67;10.43;;;;;;;-148.88;100.00;75704.09;5075063;28;20174;-76
2022/12/26 01:51:46;;;;;;;20.90;10.85;;;;;;;-148.88;100.00;75708.16;5075148;28;20456;-76
2022/12/26 01:54:12;;;;;;;27.80;19.60;;;;;;;-148.88;100.00;75716.28;5074817;28;20025;-76
2022/12/26 01:56:41;;;;;;;26.02;18.58;;;;;;;-148.88;100.00;75714.25;5075186;28;20467;-76
2022/12/26 01:59:16;;;;;;;22.80;11.82;;;;;;;-148.88;100.00;75724.41;5075351;28;20067;-76
2022/12/26 02:01:42;;;;;;;22.45;11.15;;;;;;;-148.88;100.00;75712.22;5056888;28;20115;-76
2022/12/26 02:06:56;;;;;;;26.00;17.45;;;;;;;-148.88;100.00;75720.34;5075131;28;20055;-76
2022/12/26 02:09:22;;;;;;;19.55;9.55;;;;;;;-148.88;100.00;75724.41;5074738;28;20020;-75
2022/12/26 02:11:57;;;;;;;21.13;10.68;;;;;;;-148.88;100.00;75724.41;5074879;28;20027;-76
2022/12/26 02:14:23;;;;;;;19.92;10.75;;;;;;;-148.88;100.00;75724.41;5074433;28;20472;-76
2022/12/26 02:16:49;;;;;;;27.30;19.40;;;;;;;-148.88;100.00;75724.41;5074720;28;20082;-76
2022/12/26 02:19:37;;;;;;;24.45;18.13;;;;;;;-148.88;100.00;75720.34;5075016;28;20024;-76
2022/12/26 02:22:21;;;;;;;20.52;10.90;;;;;;;-148.88;100.00;75700.03;5074622;28;20072;-76
2022/12/26 02:25:13;;;;;;;21.10;10.20;;;;;;;-148.88;100.00;75704.09;5074971;28;20092;-76
2022/12/26 02:28:00;;;;;;;24.55;19.20;;;;;;;-148.88;100.00;75695.97;5074678;28;20036;-76
2022/12/26 02:30:35;;;;;;;19.90;10.82;;;;;;;-148.88;100.00;75675.66;5074224;28;20480;-76
2022/12/26 02:33:13;;;;;;;20.63;10.45;;;;;;;-148.88;100.00;75695.97;5074330;28;20031;-76
2022/12/26 02:35:49;;;;;;;22.67;11.90;;;;;;;-148.88;100.00;75708.16;5074162;28;20480;-76
2022/12/26 02:38:34;;;;;;;22.05;13.07;;;;;;;-148.88;100.00;75718.31;5074116;28;20059;-76
2022/12/26 02:41:37;;;;;;;21.13;10.90;;;;;;;-148.88;100.00;75710.19;5074025;28;20016;-76
2022/12/26 02:47:04;;;;;;;27.77;19.60;;;;;;;-148.88;100.00;75695.97;5073970;28;20158;-76
2022/12/26 03:13:09;;;;;;;26.45;19.38;;;;;;;-148.88;100.00;75700.03;5056068;28;20069;-76
2022/12/26 03:15:28;;;;;;;29.50;14.57;;;;;;;-148.88;100.00;75714.25;5073248;28;20031;-76
2022/12/26 03:18:00;;;;;;;32.92;22.67;;;;;;;-148.88;100.00;75706.13;5073975;28;20430;-75
2022/12/26 03:20:28;;;;;;;31.45;22.30;;;;;;;-148.88;100.00;75698.00;5055514;28;20111;-76
2022/12/26 03:22:55;;;;;;;24.92;12.30;;;;;;;-148.88;100.00;75706.13;5073397;28;20138;-76
2022/12/26 03:28:38;;;;;;;23.90;12.35;;;;;;;-148.88;100.00;75710.19;5073385;28;20035;-76
2022/12/26 03:31:07;;;;;;;22.75;12.98;;;;;;;-148.88;100.00;75706.13;5073234;28;20024;-76
2022/12/26 03:36:45;;;;;;;22.50;10.80;;;;;;;-148.88;100.00;75708.16;5088984;22;20059;-76
2022/12/26 04:20:52;;;;;;;22.58;11.52;;;;;;;-148.88;100.00;75736.59;5053879;28;20060;-78
2022/12/26 04:46:21;;;;;;;32.78;21.45;;;;;;;-148.88;100.00;75736.59;5060180;28;20094;-78
2022/12/26 04:51:34;;;;;;;24.98;12.23;;;;;;;-148.88;100.00;75744.72;5056868;28;20032;-78
2022/12/26 04:53:59;;;;;;;29.05;20.10;;;;;;;-148.88;100.00;75744.72;5056708;28;20025;-78
2022/12/26 04:56:25;;;;;;;23.80;11.98;;;;;;;-148.88;100.00;75752.84;5039684;28;20032;-79
2022/12/26 04:58:50;;;;;;;24.92;11.52;;;;;;;-148.88;100.00;75744.72;5058260;28;20060;-79
2022/12/26 05:09:33;;;;;;;22.80;10.63;;;;;;;-148.88;100.00;75771.13;5060280;28;19919;-79
2022/12/26 05:11:59;;;;;;;23.35;11.43;;;;;;;-148.88;100.00;75785.34;5059092;28;20029;-78
2022/12/26 05:14:24;;;;;;;20.13;11.10;;;;;;;-148.88;100.00;75777.22;5060404;28;20040;-80
2022/12/26 05:30:30;;;;;;;;;;;;;;;-148.88;100.00;75801.59;5057040;28;20052;-78
2022/12/26 05:35:39;;;;;;;20.98;9.32;;;;;;;-148.88;100.00;75791.44;5056677;28;20262;-79
2022/12/26 05:38:04;;;;;;;18.83;10.15;;;;;;;-148.88;100.00;75797.53;5057533;28;20036;-78
2022/12/26 05:40:30;;;;;;;20.60;9.85;;;;;;;-148.88;100.00;75801.59;5037693;28;20047;-78
2022/12/26 05:42:56;;;;;;;20.52;10.52;;;;;;;-148.88;100.00;75805.66;5056517;28;20032;-78
2022/12/26 05:45:21;;;;;;;20.05;9.65;;;;;;;-148.88;100.00;75799.56;5038722;28;20387;-79
2022/12/26 05:47:46;;;;;;;21.90;10.55;;;;;;;-148.88;100.00;75785.34;5056638;28;20568;-78
2022/12/26 05:50:11;;;;;;;19.42;9.80;;;;;;;-148.88;100.00;75797.53;5056616;28;20074;-78
2022/12/26 05:52:37;;;;;;;25.05;17.48;;;;;;;-148.88;100.00;75813.78;5058103;28;20033;-79
2022/12/26 05:55:03;;;;;;;22.35;10.68;;;;;;;-148.88;100.00;75799.56;5058263;28;20071;-80
2022/12/26 05:57:28;;;;;;;25.30;11.18;;;;;;;-148.88;100.00;75801.59;5040653;28;20171;-81
2022/12/26 05:59:53;;;;;;;24.33;12.57;;;;;;;-148.88;100.00;75799.56;5057051;28;20488;-77
2022/12/26 06:02:18;;;;;;;26.05;18.67;;;;;;;-148.88;100.00;75805.66;5038641;28;20025;-77
2022/12/26 06:04:44;;;;;;;28.58;12.10;;;;;;;-148.88;100.00;75817.84;5056145;28;20025;-77
2022/12/26 06:07:10;;;;;;;25.17;18.15;;;;;;;-148.88;100.00;75821.91;5056486;28;20119;-80
2022/12/26 06:09:35;;;;;;;22.85;11.23;;;;;;;-148.88;100.00;75825.97;5038524;28;20135;-78
2022/12/26 06:12:00;;;;;;;19.58;10.07;;;;;;;-148.88;100.00;75825.97;5056500;28;20036;-79
2022/12/26 06:14:27;;;;;;;23.02;11.25;;;;;;;-148.88;100.00;75830.03;5060129;28;20017;-79
2022/12/26 06:16:53;;;;;;;25.38;11.93;;;;;;;-148.88;100.00;75832.06;5059379;28;20060;-78
2022/12/26 06:19:19;;;;;;;28.88;12.93;;;;;;;-148.88;100.00;75834.09;5042317;28;20032;-78
2022/12/26 06:21:44;;;;;;;27.60;19.10;;;;;;;-148.88;100.00;75842.22;5060100;28;20033;-79
2022/12/26 06:24:12;;;;;;;24.35;12.13;;;;;;;-148.88;100.00;75834.09;5060010;28;20487;-79
2022/12/26 06:26:38;;;;;;;28.42;12.50;;;;;;;-148.88;100.00;75846.28;5059460;28;20020;-79
2022/12/26 06:29:03;;;;;;;29.17;14.05;;;;;;;-148.88;100.00;75848.31;5059828;28;20054;-79
2022/12/26 06:31:29;;;;;;;28.48;13.05;;;;;;;-148.88;100.00;75846.28;5059689;28;20028;-79
2022/12/26 06:34:00;;;;;;;25.13;11.90;;;;;;;-148.88;100.00;75836.13;5041217;28;20024;-79
2022/12/26 06:36:27;;;;;;;25.48;11.75;;;;;;;-148.88;100.00;75846.28;5023490;28;20124;-77
2022/12/26 06:38:53;;;;;;;25.60;11.32;;;;;;;-148.88;100.00;75844.25;5057264;28;20017;-78
2022/12/26 06:41:22;;;;;;;25.27;12.35;;;;;;;-148.88;100.00;75828.00;5056939;28;20025;-77
2022/12/26 06:43:49;;;;;;;21.13;10.20;;;;;;;-148.88;100.00;75832.06;5038792;28;20035;-78
2022/12/26 06:46:20;;;;;;;22.73;10.88;;;;;;;-148.88;100.00;75825.97;5056694;28;20098;-77
2022/12/26 06:48:45;;;;;;;24.25;12.70;;;;;;;-148.88;100.00;75838.16;5056702;28;20021;-79
2022/12/26 06:51:31;;;;;;;23.13;11.25;;;;;;;-148.88;100.00;75852.38;5057981;28;20031;-79
2022/12/26 06:54:01;;;;;;;24.02;11.27;;;;;;;-148.88;100.00;75848.31;5040185;28;20033;-80
2022/12/26 06:56:26;;;;;;;22.25;10.77;;;;;;;-148.88;100.00;75838.16;5041437;28;20032;-79
2022/12/26 06:58:58;;;;;;;22.45;11.15;;;;;;;-148.88;100.00;75848.31;5059141;28;20029;-80
2022/12/26 07:01:25;;;;;;;23.38;12.30;;;;;;;-148.88;100.00;75854.41;5042031;28;20035;-80
2022/12/26 07:03:52;;;;;;;23.80;11.10;;;;;;;-148.88;100.00;75856.44;5060379;28;20045;-79
2022/12/26 07:06:34;;;;;;;27.38;19.20;;;;;;;-148.88;100.00;75858.47;5041468;28;20039;-80
2022/12/26 07:09:03;;;;;;;26.00;18.15;;;;;;;-148.88;100.00;75850.34;5042100;28;20075;-80
2022/12/26 07:11:32;;;;;;;22.52;11.07;;;;;;;-148.88;100.00;75858.47;5041270;28;20025;-79
2022/12/26 07:13:59;;;;;;;23.10;10.90;;;;;;;-148.88;100.00;75862.53;5054380;28;20042;-78
2022/12/26 07:16:26;;;;;;;23.15;10.93;;;;;;;-148.88;100.00;75858.47;5054505;28;20029;-78
2022/12/26 07:18:53;;;;;;;21.00;10.23;;;;;;;-148.88;100.00;75866.59;5037114;28;20052;-78
2022/12/26 07:21:18;;;;;;;19.92;10.25;;;;;;;-148.88;100.00;75872.69;5055313;28;20033;-78
2022/12/26 07:23:44;;;;;;;21.10;10.05;;;;;;;-148.88;100.00;75888.94;5038198;28;20023;-79
2022/12/26 07:26:09;;;;;;;20.20;9.73;;;;;;;-148.88;100.00;75895.03;5059721;28;20025;-79
2022/12/26 07:28:35;;;;;;;21.38;10.48;;;;;;;-148.88;100.00;75907.22;5057928;28;20032;-78
2022/12/26 07:31:01;;;;;;;19.30;9.50;;;;;;;-148.88;100.00;75901.13;5055910;28;20099;-78
2022/12/26 07:33:28;;;;;;;19.48;9.65;;;;;;;-148.88;100.00;75917.38;5058032;28;20021;-78
2022/12/26 07:35:58;;;;;;;18.50;9.30;;;;;;;-148.88;100.00;75927.53;5071222;28;20079;-78
2022/12/26 07:38:25;;;;;;;19.75;9.45;;;;;;;-148.88;100.00;75931.59;5057797;28;20017;-78
2022/12/26 07:40:53;;;;;;;20.15;9.95;;;;;;;-148.88;100.00;75931.59;5070889;28;20049;-79
2022/12/26 07:43:18;;;;;;;17.95;9.40;;;;;;;-148.88;100.00;75921.44;5042472;28;20060;-79
2022/12/26 07:45:43;;;;;;;19.63;9.63;;;;;;;-148.88;100.00;75919.41;5039678;28;20493;-79
2022/12/26 07:48:09;;;;;;;17.58;9.15;;;;;;;-148.88;100.00;75911.28;5056731;28;20120;-78
2022/12/26 07:50:34;;;;;;;17.92;9.05;;;;;;;-148.88;100.00;75915.34;5036860;28;20025;-78
2022/12/26 07:52:59;;;;;;;19.08;9.40;;;;;;;-148.88;100.00;75907.22;5055036;28;20158;-78
2022/12/26 07:55:25;;;;;;;17.60;9.48;;;;;;;-148.88;100.00;75907.22;5037246;28;20493;-79
2022/12/26 07:57:51;;;;;;;17.85;8.13;;;;;;;-148.88;100.00;75921.44;5037517;28;20485;-79
2022/12/26 08:00:18;;;;;;;15.88;8.05;;;;;;;-148.88;100.00;75915.34;5055530;28;20040;-79
2022/12/26 08:02:44;;;;;;;15.43;8.32;;;;;;;-148.88;100.00;75919.41;5057121;28;20033;-79
2022/12/26 08:05:09;;;;;;;15.57;7.95;;;;;;;-148.88;100.00;75905.19;5059646;28;20394;-78
2022/12/26 08:07:34;;;;;;;14.70;8.10;;;;;;;-148.88;100.00;75907.22;5041513;28;20021;-78
2022/12/26 08:09:59;;;;;;;13.75;8.00;;;;;;;-148.88;100.00;75909.25;5059403;28;20039;-78
2022/12/26 08:12:25;;;;;;;15.98;8.63;;;;;;;-148.88;100.00;75909.25;5060297;28;20024;-79
2022/12/26 08:14:51;;;;;;;15.02;8.32;;;;;;;-148.88;100.00;75917.38;5060008;28;20021;-78
2022/12/26 08:17:17;;;;;;;15.02;7.78;;;;;;;-148.88;100.00;75903.16;5059806;28;20389;-79
2022/12/26 08:19:42;;;;;;;13.50;7.65;;;;;;;-148.88;100.00;75917.38;5059945;28;20096;-78
2022/12/26 08:22:08;;;;;;;14.60;8.05;;;;;;;-148.88;100.00;75913.31;5042798;28;20064;-79
2022/12/26 08:24:33;;;;;;;15.57;8.55;;;;;;;-148.88;100.00;75905.19;5060137;28;20025;-78
2022/12/26 08:26:58;;;;;;;18.73;8.82;;;;;;;-148.88;100.00;75905.19;5058039;28;20029;-77
2022/12/26 08:29:23;;;;;;;14.52;8.20;;;;;;;-148.88;100.00;75907.22;5040018;28;20050;-78
2022/12/26 08:31:49;;;;;;;13.77;8.10;;;;;;;-148.88;100.00;75903.16;5040395;28;20031;-77
2022/12/26 08:34:14;;;;;;;16.95;8.60;;;;;;;-148.88;100.00;75909.25;5058837;28;20025;-79
2022/12/26 08:36:40;;;;;;;15.20;8.77;;;;;;;-148.88;100.00;75895.03;5052490;28;20435;-79
2022/12/26 08:39:05;;;;;;;18.45;10.20;;;;;;;-148.88;100.00;75911.28;5059617;28;20021;-78
2022/12/26 08:41:30;;;;;;;18.88;9.57;;;;;;;-148.88;100.00;75915.34;5059828;28;20029;-78
2022/12/26 08:43:56;;;;;;;18.83;10.48;;;;;;;-148.88;100.00;75923.47;5059367;28;20130;-78
2022/12/26 08:46:21;;;;;;;20.55;10.50;;;;;;;-148.88;100.00;75909.25;5060772;28;20032;-78
2022/12/26 08:48:48;;;;;;;19.38;10.90;;;;;;;-148.88;100.00;75911.28;5059332;28;20040;-78
2022/12/26 08:51:16;;;;;;;20.80;12.35;;;;;;;-148.88;100.00;75911.28;5058664;28;20032;-79
2022/12/26 08:53:42;;;;;;;23.08;12.23;;;;;;;-148.88;100.00;75903.16;5060323;28;20099;-79
2022/12/26 08:56:13;;;;;;;20.67;12.10;;;;;;;-148.88;100.00;75911.28;5059485;28;20028;-79
2022/12/26 08:58:39;;;;;;;25.50;21.13;;;;;;;-148.88;100.00;75907.22;5058431;28;20032;-78
2022/12/26 09:01:09;;;;;;;25.63;13.55;;;;;;;-148.88;100.00;75911.28;5059692;28;20032;-78
2022/12/26 09:03:34;;;;;;;23.20;13.20;;;;;;;-148.88;100.00;75911.28;5058291;28;20025;-77
2022/12/26 09:06:01;;;;;;;25.48;12.45;;;;;;;-148.88;100.00;75913.31;5058543;28;20033;-80
2022/12/26 09:08:29;;;;;;;25.88;14.48;;;;;;;-148.88;100.00;75919.41;5057423;28;20032;-79
2022/12/26 09:10:54;;;;;;;23.48;12.57;;;;;;;-148.88;100.00;75899.09;5058004;28;20082;-78
2022/12/26 09:13:20;;;;;;;23.13;12.43;;;;;;;-148.88;100.00;75895.03;5058961;28;20021;-78
2022/12/26 09:15:46;;;;;;;19.02;10.55;;;;;;;-148.88;100.00;75888.94;5057956;28;20440;-78
2022/12/26 09:18:11;;;;;;;21.83;11.07;;;;;;;-148.88;100.00;75872.69;5060380;28;20021;-78
2022/12/26 09:20:36;;;;;;;19.30;10.13;;;;;;;-148.88;100.00;75874.72;5059845;28;20024;-79
2022/12/26 09:23:02;;;;;;;20.88;10.77;;;;;;;-148.88;100.00;75870.66;5058982;28;20028;-79
2022/12/26 09:25:27;;;;;;;16.08;9.20;;;;;;;-148.88;100.00;75864.56;5059735;28;20117;-78
2022/12/26 09:27:53;;;;;;;16.38;9.07;;;;;;;-148.88;100.00;75858.47;5060232;28;20024;-79
2022/12/26 09:30:20;;;;;;;16.23;9.65;;;;;;;-148.88;100.00;75866.59;5059758;28;20020;-78
2022/12/26 09:32:46;;;;;;;16.75;9.32;;;;;;;-148.88;100.00;75858.47;5057476;28;20070;-78
2022/12/26 09:35:11;;;;;;;13.50;8.48;;;;;;;-148.88;100.00;75854.41;5058636;28;20021;-77
2022/12/26 09:37:36;;;;;;;14.77;8.13;;;;;;;-148.88;100.00;75846.28;5058423;28;20025;-77
2022/12/26 09:40:03;;;;;;;14.90;8.48;;;;;;;-148.88;100.00;75832.06;5057276;28;20020;-78
2022/12/26 09:42:56;;;;;;;13.73;8.25;;;;;;;-148.88;100.00;75846.28;5058232;28;20497;-77
2022/12/26 09:45:40;;;;;;;12.90;7.85;;;;;;;-148.88;100.00;75838.16;5058302;28;20481;-78
2022/12/26 09:48:10;;;;;;;16.63;7.50;;;;;;;-148.88;100.00;75854.41;5058638;28;20090;-78
2022/12/26 09:50:38;;;;;;;15.90;7.53;;;;;;;-148.88;100.00;75858.47;5058503;28;20024;-78
2022/12/26 09:53:13;;;;;;;14.23;7.78;;;;;;;-148.88;100.00;75870.66;5039889;28;20025;-78
2022/12/26 09:55:49;;;;;;;16.13;8.77;;;;;;;-148.88;100.00;75874.72;5057196;28;20037;-78
2022/12/26 09:58:27;;;;;;;13.93;7.47;;;;;;;-148.88;100.00;75874.72;5057414;28;20078;-79
2022/12/26 10:01:18;;;;;;;12.00;7.22;;;;;;;-148.88;100.00;75880.81;5038444;28;20047;-78
2022/12/26 10:03:47;;;;;;;13.60;7.45;;;;;;;-148.88;100.00;75868.63;5056368;28;20389;-78
2022/12/26 10:06:18;;;;;;;11.65;7.35;;;;;;;-148.88;100.00;75868.63;5039193;28;20032;-78
2022/12/26 10:09:08;;;;;;;11.32;6.38;;;;;;;-148.88;100.00;75864.56;5039625;28;20028;-77
2022/12/26 10:11:55;;;;;;;10.20;5.55;;;;;;;-148.88;100.00;75848.31;5057658;28;20024;-78
2022/12/26 10:14:35;;;;;;;8.77;5.80;;;;;;;-148.88;100.00;75838.16;5038635;28;20025;-77
2022/12/26 10:17:48;;;;;;;10.70;7.85;;;;;;;-148.88;100.00;75834.09;5056425;28;20435;-77
2022/12/26 10:20:37;;;;;;;10.85;4.63;;;;;;;-148.88;100.00;75821.91;5040824;28;20063;-77
2022/12/26 10:23:33;;;;;;;10.63;5.18;;;;;;;-148.88;100.00;75819.88;5057124;28;20025;-78
2022/12/26 10:26:31;;;;;;;10.98;4.43;;;;;;;-148.88;100.00;75813.78;5056945;28;20474;-78
2022/12/26 10:29:08;;;;;;;9.80;4.65;;;;;;;-148.88;100.00;75821.91;5044391;28;20485;-77
2022/12/26 10:31:41;;;;;;;11.18;4.45;;;;;;;-148.88;100.00;75825.97;5039143;28;20039;-78
2022/12/26 10:34:25;;;;;;;7.85;4.30;;;;;;;-148.88;100.00;75821.91;5056217;28;20035;-78
2022/12/26 10:37:01;;;;;;;;;;;;;;;-148.88;100.00;75801.59;5056876;28;20106;-78
2022/12/26 10:39:33;;;;;;;7.45;3.45;;;;;;;-148.88;100.00;75803.63;5056532;28;19961;-78
2022/12/26 10:42:10;;;;;;;7.75;3.00;;;;;;;-148.88;100.00;75799.56;5040922;28;20485;-78
2022/12/26 10:44:35;;;;;;;9.10;3.33;;;;;;;-148.88;100.00;75785.34;5067406;28;20025;-78
2022/12/26 10:47:30;;;;;;;8.25;2.90;;;;;;;-148.88;100.00;75785.34;5067018;28;20117;-78
2022/12/26 10:49:58;;;;;;;6.18;2.80;;;;;;;-148.88;100.00;75797.53;5044433;28;20534;-78
2022/12/26 10:52:31;;;;;;;6.32;3.05;;;;;;;-148.88;100.00;75775.19;5038002;28;20025;-77
2022/12/26 10:54:58;;;;;;;7.90;3.30;;;;;;;-148.88;100.00;75767.06;5040835;28;20456;-77
2022/12/26 10:57:26;;;;;;;5.47;2.70;;;;;;;-148.88;100.00;75752.84;5055884;28;20021;-78
2022/12/26 10:59:54;;;;;;;6.50;3.05;;;;;;;-148.88;100.00;75767.06;5055917;28;20021;-78
2022/12/26 11:02:30;;;;;;;5.85;2.80;;;;;;;-148.88;100.00;75748.78;5055245;28;20071;-78
2022/12/26 11:05:21;;;;;;;5.65;3.00;;;;;;;-148.88;100.00;75756.91;5054959;28;20083;-78
2022/12/26 11:07:51;;;;;;;6.47;2.40;;;;;;;-148.88;100.00;75752.84;5054755;28;20052;-78
2022/12/26 11:10:19;;;;;;;5.43;3.20;;;;;;;-148.88;100.00;75769.09;5055211;28;20059;-80
2022/12/26 11:12:53;;;;;;;7.65;3.25;;;;;;;-148.88;100.00;75763.00;5057819;28;20485;-79
2022/12/26 11:15:30;;;;;;;4.90;2.33;;;;;;;-148.88;100.00;75769.09;5040842;28;20021;-79
2022/12/26 11:18:20;;;;;;;6.57;3.65;;;;;;;-148.88;100.00;75769.09;5059623;28;20481;-79
2022/12/26 11:20:47;;;;;;;5.47;3.83;;;;;;;-148.88;100.00;75756.91;5044689;28;20032;-80
2022/12/26 11:23:19;;;;;;;5.65;3.30;;;;;;;-148.88;100.00;75773.16;5064299;28;20025;-79
2022/12/26 11:25:50;;;;;;;4.88;3.35;;;;;;;-148.88;100.00;75760.97;5064682;28;20029;-80
2022/12/26 11:28:34;;;;;;;3.83;2.60;;;;;;;-148.88;100.00;75767.06;5039928;28;20082;-76
2022/12/26 11:31:03;;;;;;;10.85;3.35;;;;;;;-148.88;100.00;75769.09;5055877;28;20028;-77
2022/12/26 11:33:35;;;;;;;5.13;2.80;;;;;;;-148.88;100.00;75756.91;5057016;28;20481;-77
2022/12/26 11:36:15;;;;;;;5.93;3.63;;;;;;;-148.88;100.00;75750.81;5048788;28;20027;-78
2022/12/26 11:38:55;;;;;;;6.43;3.75;;;;;;;-148.88;100.00;75750.81;5058722;28;20024;-78
2022/12/26 11:41:32;;;;;;;4.90;3.08;;;;;;;-148.88;100.00;75742.69;5058537;28;20029;-79
2022/12/26 11:44:17;;;;;;;7.00;3.97;;;;;;;-148.88;100.00;75752.84;5057106;28;20043;-78
2022/12/26 11:46:51;;;;;;;4.43;3.38;;;;;;;-148.88;100.00;75740.66;5057630;28;20053;-78
2022/12/26 11:49:25;;;;;;;4.85;3.15;;;;;;;-148.88;100.00;75736.59;5056744;28;20024;-78
2022/12/26 11:51:51;;;;;;;5.55;3.22;;;;;;;-148.88;100.00;75726.44;5058797;28;20029;-78
2022/12/26 11:54:28;;;;;;;6.55;3.53;;;;;;;-148.88;100.00;75698.00;5058849;28;20025;-78
2022/12/26 11:57:01;;;;;;;6.18;3.97;;;;;;;-148.88;100.00;75698.00;5058988;28;20025;-79
2022/12/26 11:59:26;;;;;;;5.57;3.90;;;;;;;-148.88;100.00;75695.97;5055855;28;20115;-78
2022/12/26 12:02:18;;;;;;;4.78;3.88;;;;;;;-148.88;100.00;75700.03;5056104;28;20437;-79
2022/12/26 12:04:45;;;;;;;5.43;4.13;;;;;;;-148.88;100.00;75708.16;5048686;28;20082;-77
2022/12/26 12:07:32;;;;;;;6.35;4.20;;;;;;;-148.88;100.00;75728.47;5052993;28;20088;-77
2022/12/26 12:10:27;;;;;;;6.20;3.17;;;;;;;-148.88;100.00;75704.09;5053596;28;20029;-77
2022/12/26 12:13:04;;;;;;;6.43;4.10;;;;;;;-148.88;100.00;75695.97;5057998;28;20033;-79
2022/12/26 12:16:23;;;;;;;4.22;3.65;;;;;;;-148.88;100.00;75714.25;5059828;28;20105;-79
2022/12/26 12:18:51;;;;;;;5.55;3.80;;;;;;;-148.88;100.00;75704.09;5021043;28;20406;-79
2022/12/26 12:21:35;;;;;;;7.65;3.40;;;;;;;-148.88;100.00;75698.00;5058073;28;20033;-79
2022/12/26 12:24:40;;;;;;;4.82;3.00;;;;;;;-148.88;100.00;75691.91;5058414;28;20017;-79
2022/12/26 12:27:40;;;;;;;4.78;3.05;;;;;;;-148.88;100.00;75683.78;5058998;28;20489;-79
2022/12/26 12:30:17;;;;;;;7.93;3.10;;;;;;;-148.88;100.00;75689.88;5054506;28;20036;-77
2022/12/26 12:32:58;;;;;;;4.53;3.08;;;;;;;-148.88;100.00;75681.75;5054986;28;20031;-78
2022/12/26 12:35:51;;;;;;;7.32;2.88;;;;;;;-148.88;100.00;75698.00;5053921;28;20914;-77
2022/12/26 12:38:39;;;;;;;6.60;2.70;;;;;;;-148.88;100.00;75695.97;5035872;28;20029;-77
2022/12/26 12:41:28;;;;;;;5.05;2.58;;;;;;;-148.88;100.00;75700.03;5055045;28;20123;-76
2022/12/26 12:44:18;;;;;;;4.05;2.50;;;;;;;-148.88;100.00;75720.34;5054982;28;20021;-76
2022/12/26 12:47:14;;;;;;;7.00;2.40;;;;;;;-148.88;100.00;75732.53;5037302;28;20033;-76
2022/12/26 12:50:01;;;;;;;3.63;2.25;;;;;;;-148.88;100.00;75760.97;5039309;28;20021;-76
2022/12/26 12:52:49;;;;;;;7.30;2.63;;;;;;;-148.88;100.00;75785.34;5041048;28;20082;-77
2022/12/26 12:55:31;;;;;;;8.80;4.05;;;;;;;-148.88;100.00;75817.84;5044222;28;20017;-78
2022/12/26 12:58:12;;;;;;;3.05;1.83;;;;;;;-148.88;100.00;75866.59;5058713;28;20043;-76
2022/12/26 13:00:44;;;;;;;5.63;1.85;;;;;;;-148.88;100.00;75886.91;5059709;28;20537;-78
2022/12/26 13:03:37;;;;;;;3.13;1.33;;;;;;;-148.88;100.00;75943.78;5061166;28;20151;-78
2022/12/26 13:06:10;;;;;;;2.50;0.80;;;;;;;-148.88;100.00;75960.03;5057855;28;20150;-79
2022/12/26 13:08:47;;;;;;;3.70;1.10;;;;;;;-148.88;100.00;75980.34;5040220;28;20471;-79
2022/12/26 13:11:28;;;;;;;2.83;1.08;;;;;;;-148.88;100.00;75988.47;5059249;28;20040;-80
2022/12/26 13:14:16;;;;;;;4.50;1.27;;;;;;;-148.88;100.00;76029.09;5059320;28;20064;-79
2022/12/26 13:16:50;;;;;;;8.13;1.80;;;;;;;-148.88;100.00;76041.28;5059003;28;20032;-78
2022/12/26 13:19:26;;;;;;;3.35;1.90;;;;;;;-148.88;100.00;76033.16;5040091;28;20060;-77
2022/12/26 13:21:55;;;;;;;4.22;1.58;;;;;;;-148.88;100.00;76049.41;5058224;28;20027;-78
2022/12/26 13:24:41;;;;;;;4.70;1.65;;;;;;;-148.88;100.00;76045.34;5058535;28;20496;-78
2022/12/26 13:27:25;;;;;;;7.45;2.20;;;;;;;-148.88;100.00;76049.41;5060704;28;20080;-79